Time;durP1;ratioP1;P1;durP2;ratioP2;P2;SDS_P1;SDS_P2;PMS_P1;PMS_P2;Temp;Humidity;BMP_temperature;BMP_pressure;BME280_temperature;BME280_humidity;BME280_pressure;Samples;Min_cycle;Max_cycle;Signal;HPM_P1;HPM_P2
2023/04/15 00:01:58;;;;;;;9.57;5.07;;;6.40;78.00;;;;;;4979187;28;20470;-72
2023/04/15 00:04:24;;;;;;;8.77;5.60;;;6.40;78.00;;;;;;4979866;28;20223;-72
2023/04/15 00:06:53;;;;;;;9.00;5.17;;;6.30;78.00;;;;;;4975359;28;21268;-73
2023/04/15 00:09:20;;;;;;;9.67;4.93;;;6.30;78.00;;;;;;4980933;28;20190;-71
2023/04/15 00:11:45;;;;;;;10.63;5.60;;;6.30;77.80;;;;;;4980669;28;20410;-71
2023/04/15 00:14:12;;;;;;;16.10;6.30;;;6.30;77.80;;;;;;4977042;28;20998;-70
2023/04/15 00:16:38;;;;;;;12.33;5.23;;;6.30;77.60;;;;;;4972511;28;20645;-73
2023/04/15 00:19:03;;;;;;;12.80;5.60;;;6.20;77.80;;;;;;4976216;28;20427;-70
2023/04/15 00:21:30;;;;;;;9.67;4.70;;;6.10;78.40;;;;;;4979497;28;20670;-70
2023/04/15 00:23:56;;;;;;;8.07;4.70;;;6.10;78.60;;;;;;4977147;28;20262;-72
2023/04/15 00:26:21;;;;;;;9.63;4.87;;;6.10;78.90;;;;;;4977733;28;20459;-72
2023/04/15 00:28:47;;;;;;;8.47;4.23;;;6.10;79.00;;;;;;4974976;28;20446;-73
2023/04/15 00:31:13;;;;;;;9.90;4.60;;;6.10;79.20;;;;;;4976693;28;20198;-71
2023/04/15 00:33:39;;;;;;;8.50;4.80;;;6.00;79.20;;;;;;4974344;28;20250;-71
2023/04/15 00:36:06;;;;;;;8.90;4.43;;;6.00;79.30;;;;;;4972703;28;20219;-71
2023/04/15 00:38:31;;;;;;;12.10;5.53;;;6.10;79.30;;;;;;4980839;28;20210;-71
2023/04/15 00:40:57;;;;;;;10.60;4.73;;;6.10;79.00;;;;;;4981211;28;20445;-72
2023/04/15 00:43:22;;;;;;;7.90;4.43;;;6.00;79.20;;;;;;4975068;28;20215;-71
2023/04/15 00:45:50;;;;;;;9.30;5.30;;;6.00;79.30;;;;;;4971775;28;20237;-72
2023/04/15 00:48:17;;;;;;;8.10;4.53;;;6.00;79.60;;;;;;4974658;28;20211;-71
2023/04/15 00:50:42;;;;;;;9.87;4.60;;;6.00;79.90;;;;;;4992927;28;20430;-72
2023/04/15 00:53:08;;;;;;;6.30;3.93;;;5.90;80.20;;;;;;4985517;28;20433;-72
2023/04/15 00:55:35;;;;;;;7.50;4.37;;;5.90;80.20;;;;;;4981167;28;20224;-72
2023/04/15 00:58:00;;;;;;;9.43;4.97;;;5.90;80.20;;;;;;4980039;28;20203;-72
2023/04/15 01:00:26;;;;;;;11.10;5.33;;;5.90;80.00;;;;;;4986956;28;20423;-72
2023/04/15 01:02:51;;;;;;;10.90;4.93;;;5.90;79.70;;;;;;4984014;28;20184;-71
2023/04/15 01:05:18;;;;;;;16.83;5.30;;;5.80;79.90;;;;;;4981328;28;20284;-72
2023/04/15 01:07:44;;;;;;;7.40;4.23;;;5.80;80.20;;;;;;4980661;28;20279;-72
2023/04/15 01:10:09;;;;;;;9.57;4.57;;;5.80;80.50;;;;;;4981701;28;20857;-73
2023/04/15 01:12:36;;;;;;;8.17;4.83;;;5.80;80.80;;;;;;4977279;28;20277;-72
2023/04/15 01:15:03;;;;;;;8.93;5.10;;;5.80;80.60;;;;;;4976192;28;20199;-71
2023/04/15 01:17:29;;;;;;;8.60;4.60;;;5.70;80.60;;;;;;4971938;28;20520;-71
2023/04/15 01:19:56;;;;;;;6.97;4.50;;;5.60;80.30;;;;;;4974009;28;21023;-73
2023/04/15 01:22:23;;;;;;;13.60;5.00;;;5.60;80.20;;;;;;4976748;28;20879;-72
2023/04/15 01:25:10;;;;;;;9.77;4.97;;;5.60;79.90;;;;;;4978175;28;20545;-71
2023/04/15 01:27:39;;;;;;;9.30;4.37;;;5.40;80.00;;;;;;4979698;28;20450;-71
2023/04/15 01:30:06;;;;;;;7.10;4.90;;;5.30;80.80;;;;;;4979450;28;20493;-71
2023/04/15 01:32:32;;;;;;;6.90;4.70;;;5.30;81.10;;;;;;4983275;28;20430;-71
2023/04/15 01:34:58;;;;;;;7.30;4.37;;;5.40;81.20;;;;;;4979129;28;20478;-72
2023/04/15 01:37:23;;;;;;;11.20;5.43;;;5.40;81.20;;;;;;4980883;28;20205;-71
2023/04/15 01:39:49;;;;;;;10.67;4.80;;;5.40;81.20;;;;;;4973999;28;20186;-71
2023/04/15 01:42:15;;;;;;;6.93;4.33;;;5.40;81.40;;;;;;4981786;28;20907;-71
2023/04/15 01:44:40;;;;;;;10.57;4.70;;;5.40;81.50;;;;;;4975353;28;20203;-72
2023/04/15 01:47:06;;;;;;;13.93;6.87;;;5.40;81.80;;;;;;4973719;28;20293;-71
2023/04/15 01:49:31;;;;;;;16.03;8.03;;;5.40;82.10;;;;;;4984464;28;20214;-72
2023/04/15 01:51:57;;;;;;;9.97;5.20;;;5.40;82.20;;;;;;4983961;28;20668;-71
2023/04/15 01:54:22;;;;;;;5.57;3.93;;;5.50;82.40;;;;;;4974160;28;20187;-71
2023/04/15 01:56:48;;;;;;;13.40;4.53;;;5.50;82.40;;;;;;4972013;28;20211;-71
2023/04/15 01:59:14;;;;;;;8.00;4.53;;;5.50;81.90;;;;;;4979214;28;20473;-72
2023/04/15 02:01:39;;;;;;;6.93;4.17;;;5.50;81.80;;;;;;4973175;28;20554;-72
2023/04/15 02:04:06;;;;;;;12.47;4.80;;;5.50;82.10;;;;;;4971940;28;20218;-72
2023/04/15 02:06:32;;;;;;;8.10;4.57;;;5.50;82.10;;;;;;4969991;28;20237;-72
2023/04/15 02:08:57;;;;;;;8.57;4.37;;;5.40;82.20;;;;;;4974240;28;20431;-72
2023/04/15 02:11:23;;;;;;;14.33;4.47;;;5.40;82.50;;;;;;4982647;28;20432;-73
2023/04/15 02:13:49;;;;;;;9.70;4.80;;;5.40;82.70;;;;;;4974799;28;20188;-72
2023/04/15 02:16:16;;;;;;;14.40;4.90;;;5.30;82.20;;;;;;4968421;28;20222;-72
2023/04/15 02:18:44;;;;;;;12.90;4.37;;;5.30;82.10;;;;;;4975674;28;20200;-72
2023/04/15 02:21:09;;;;;;;8.17;4.40;;;5.20;81.90;;;;;;4971794;28;20518;-71
2023/04/15 02:23:35;;;;;;;11.27;4.70;;;5.30;82.20;;;;;;4972859;28;21001;-72
2023/04/15 02:26:00;;;;;;;12.40;4.67;;;5.30;82.20;;;;;;4978194;28;20677;-72
2023/04/15 02:28:26;;;;;;;12.20;4.70;;;5.20;82.20;;;;;;4974153;28;20567;-71
2023/04/15 02:30:53;;;;;;;7.77;4.70;;;5.20;82.20;;;;;;4973033;28;20183;-71
2023/04/15 02:33:19;;;;;;;10.40;4.67;;;5.20;82.20;;;;;;4980905;28;20202;-71
2023/04/15 02:35:44;;;;;;;8.67;4.53;;;5.10;82.40;;;;;;4973156;28;20478;-72
2023/04/15 02:38:10;;;;;;;9.07;4.10;;;5.10;82.50;;;;;;4976874;28;20205;-72
2023/04/15 02:40:36;;;;;;;9.43;4.40;;;5.10;82.70;;;;;;4975409;28;20273;-73
2023/04/15 02:43:02;;;;;;;10.63;4.53;;;5.10;83.00;;;;;;4978221;28;20537;-72
2023/04/15 02:45:27;;;;;;;10.87;5.20;;;5.00;82.70;;;;;;4969681;28;20234;-72
2023/04/15 02:47:54;;;;;;;12.80;5.40;;;4.90;82.70;;;;;;4978049;28;20270;-71
2023/04/15 02:50:19;;;;;;;8.57;4.50;;;4.90;82.80;;;;;;4982956;28;20806;-71
2023/04/15 02:52:45;;;;;;;7.27;4.20;;;4.90;83.10;;;;;;4973056;28;20505;-72
2023/04/15 02:55:11;;;;;;;10.40;4.80;;;4.90;83.40;;;;;;4969241;28;20236;-70
2023/04/15 02:57:38;;;;;;;9.30;4.10;;;4.90;83.60;;;;;;4972238;28;20190;-72
2023/04/15 03:00:05;;;;;;;8.80;4.50;;;4.80;83.70;;;;;;4979566;28;20433;-71
2023/04/15 03:02:37;;;;;;;8.27;4.40;;;4.80;84.10;;;;;;4973495;28;20427;-71
2023/04/15 03:05:04;;;;;;;7.93;4.57;;;4.80;84.30;;;;;;4973993;28;20434;-70
2023/04/15 03:07:30;;;;;;;10.63;5.27;;;4.90;84.00;;;;;;4972246;28;21029;-72
2023/04/15 03:09:56;;;;;;;10.87;4.40;;;4.90;83.70;;;;;;4977635;28;20423;-70
2023/04/15 03:12:22;;;;;;;7.63;3.80;;;4.90;83.60;;;;;;4973339;28;20426;-70
2023/04/15 03:14:47;;;;;;;8.67;4.47;;;4.90;83.70;;;;;;4970275;28;20823;-71
2023/04/15 03:17:13;;;;;;;10.13;4.07;;;4.90;83.80;;;;;;4967816;28;20188;-72
2023/04/15 03:19:39;;;;;;;11.50;4.30;;;4.90;83.80;;;;;;4974407;28;20673;-71
2023/04/15 03:22:04;;;;;;;8.53;4.20;;;5.00;83.80;;;;;;4973832;28;20190;-73
2023/04/15 03:24:30;;;;;;;10.03;4.63;;;5.00;83.80;;;;;;4971483;28;20202;-72
2023/04/15 03:26:56;;;;;;;13.77;4.20;;;4.90;83.70;;;;;;4968482;28;20207;-72
2023/04/15 03:29:22;;;;;;;7.93;4.00;;;4.90;83.70;;;;;;4982122;28;20187;-72
2023/04/15 03:31:48;;;;;;;8.93;4.43;;;4.90;83.70;;;;;;4974633;28;20418;-71
2023/04/15 03:34:13;;;;;;;11.90;5.57;;;5.00;83.30;;;;;;4980811;28;20480;-72
2023/04/15 03:36:39;;;;;;;8.37;4.00;;;5.00;82.80;;;;;;4970186;28;20227;-71
2023/04/15 03:39:05;;;;;;;8.20;4.90;;;5.00;82.80;;;;;;4973650;28;20670;-72
2023/04/15 03:41:31;;;;;;;11.27;4.57;;;5.00;83.00;;;;;;4972712;28;20202;-73
2023/04/15 03:43:57;;;;;;;10.63;4.60;;;4.90;82.70;;;;;;4974864;28;20285;-71
2023/04/15 03:46:22;;;;;;;8.47;4.63;;;4.80;82.20;;;;;;4972367;28;20537;-71
2023/04/15 03:48:48;;;;;;;6.43;4.07;;;4.80;82.20;;;;;;4985642;28;20827;-72
2023/04/15 03:51:13;;;;;;;6.60;4.27;;;4.70;82.20;;;;;;4989014;28;20218;-72
2023/04/15 03:53:39;;;;;;;5.33;3.73;;;4.70;82.40;;;;;;4986117;28;20222;-72
2023/04/15 03:56:05;;;;;;;7.00;4.13;;;4.70;82.70;;;;;;4986134;28;20213;-71
2023/04/15 03:58:30;;;;;;;6.70;4.03;;;4.70;83.00;;;;;;4987150;28;20251;-70
2023/04/15 04:00:56;;;;;;;9.20;4.60;;;4.80;82.80;;;;;;4989134;28;20184;-71
2023/04/15 04:03:22;;;;;;;6.87;4.30;;;4.70;82.80;;;;;;4986997;28;20516;-71
2023/04/15 04:05:47;;;;;;;13.43;5.10;;;4.80;83.00;;;;;;4977482;28;20218;-71
2023/04/15 04:08:15;;;;;;;7.33;3.97;;;4.70;83.00;;;;;;4983689;28;20274;-71
2023/04/15 04:10:40;;;;;;;7.60;4.00;;;4.80;83.30;;;;;;4985600;28;20182;-71
2023/04/15 04:13:06;;;;;;;7.10;4.10;;;4.80;83.60;;;;;;4977588;28;20485;-71
2023/04/15 04:15:32;;;;;;;10.97;4.50;;;4.80;83.70;;;;;;4978286;28;20224;-72
2023/04/15 04:17:57;;;;;;;13.40;4.40;;;4.80;84.10;;;;;;4979243;28;20427;-69
2023/04/15 04:20:23;;;;;;;6.53;4.10;;;4.90;84.10;;;;;;4982994;28;20180;-71
2023/04/15 04:22:49;;;;;;;8.00;3.90;;;4.90;84.00;;;;;;4983210;28;20699;-69
2023/04/15 04:25:15;;;;;;;5.67;3.40;;;4.80;83.80;;;;;;4970895;28;20920;-71
2023/04/15 04:27:41;;;;;;;8.23;4.10;;;4.80;83.80;;;;;;4982492;28;20257;-71
2023/04/15 04:30:07;;;;;;;5.93;3.60;;;4.80;83.80;;;;;;4982948;28;20505;-71
2023/04/15 04:32:32;;;;;;;8.63;4.03;;;4.80;83.80;;;;;;4978386;28;20442;-71
2023/04/15 04:34:58;;;;;;;10.60;3.03;;;4.80;83.70;;;;;;4979664;28;20462;-71
2023/04/15 04:37:23;;;;;;;6.33;3.20;;;4.70;83.60;;;;;;4981291;28;20206;-71
2023/04/15 04:39:49;;;;;;;4.10;2.97;;;4.60;83.80;;;;;;4984984;28;20186;-71
2023/04/15 04:42:15;;;;;;;9.80;3.93;;;4.60;84.00;;;;;;4979618;28;20187;-71
2023/04/15 04:44:41;;;;;;;7.10;4.00;;;4.60;84.10;;;;;;4974999;28;20191;-71
2023/04/15 04:47:07;;;;;;;16.77;4.30;;;4.60;84.10;;;;;;4972128;28;20822;-71
2023/04/15 04:49:32;;;;;;;5.90;3.73;;;4.60;84.30;;;;;;4979954;28;20419;-70
2023/04/15 04:51:58;;;;;;;9.73;4.80;;;4.60;84.10;;;;;;4975260;28;20210;-71
2023/04/15 04:54:24;;;;;;;10.70;4.27;;;4.60;84.00;;;;;;4972394;28;20191;-71
2023/04/15 04:56:50;;;;;;;9.30;4.37;;;4.60;84.00;;;;;;4973874;28;20223;-70
2023/04/15 04:59:16;;;;;;;9.03;3.80;;;4.60;83.80;;;;;;4979173;28;20176;-73
2023/04/15 05:01:41;;;;;;;6.83;3.50;;;4.50;84.00;;;;;;4973981;28;20433;-72
2023/04/15 05:04:07;;;;;;;8.80;4.10;;;4.50;84.10;;;;;;4973970;28;20794;-71
2023/04/15 05:06:34;;;;;;;10.63;4.60;;;4.60;84.10;;;;;;4975901;28;20210;-71
2023/04/15 05:09:00;;;;;;;6.73;3.90;;;4.60;84.00;;;;;;4975763;28;20191;-70
2023/04/15 05:11:27;;;;;;;11.40;4.57;;;4.60;83.80;;;;;;4978278;28;20778;-71
2023/04/15 05:13:52;;;;;;;7.80;4.07;;;4.60;83.80;;;;;;4973231;28;20437;-71
2023/04/15 05:16:18;;;;;;;9.50;5.37;;;4.60;83.80;;;;;;4971811;28;20505;-71
2023/04/15 05:18:44;;;;;;;8.17;4.00;;;4.60;83.80;;;;;;4977334;28;20665;-72
2023/04/15 05:21:10;;;;;;;10.87;4.30;;;4.60;83.80;;;;;;4978424;28;20497;-71
2023/04/15 05:23:36;;;;;;;8.57;4.10;;;4.60;84.00;;;;;;4976254;28;20179;-72
2023/04/15 05:26:02;;;;;;;10.43;5.67;;;4.70;83.80;;;;;;4970397;28;20458;-70
2023/04/15 05:28:28;;;;;;;7.50;4.90;;;4.60;83.80;;;;;;4975412;28;20438;-71
2023/04/15 05:30:54;;;;;;;7.10;4.23;;;4.60;84.00;;;;;;4973544;28;20940;-72
2023/04/15 05:33:19;;;;;;;14.50;5.17;;;4.70;83.80;;;;;;4979211;28;20188;-71
2023/04/15 05:35:45;;;;;;;8.73;5.10;;;4.70;83.70;;;;;;4977490;28;20222;-72
2023/04/15 05:38:11;;;;;;;18.93;5.50;;;4.70;83.80;;;;;;4985323;28;20583;-72
2023/04/15 05:40:36;;;;;;;7.43;3.90;;;4.70;83.80;;;;;;4982862;28;20196;-72
2023/04/15 05:43:02;;;;;;;10.90;5.27;;;4.80;83.60;;;;;;4974990;28;20606;-71
2023/04/15 05:45:28;;;;;;;10.80;5.97;;;4.90;83.00;;;;;;4968600;28;20216;-71
2023/04/15 05:47:53;;;;;;;8.00;4.70;;;4.80;82.50;;;;;;4980359;28;20188;-71
2023/04/15 05:50:20;;;;;;;9.17;4.23;;;4.80;82.40;;;;;;4979473;28;20215;-72
2023/04/15 05:52:45;;;;;;;15.93;4.67;;;4.80;82.40;;;;;;4974155;28;20187;-72
2023/04/15 05:55:11;;;;;;;9.17;4.53;;;4.90;82.20;;;;;;4971099;28;20486;-72
2023/04/15 05:57:37;;;;;;;9.10;4.33;;;4.90;81.90;;;;;;4974437;28;20887;-72
2023/04/15 06:00:04;;;;;;;10.73;3.93;;;5.00;81.80;;;;;;4976346;28;20183;-71
2023/04/15 06:02:30;;;;;;;10.30;4.30;;;5.10;81.10;;;;;;4972970;28;20415;-72
2023/04/15 06:04:56;;;;;;;8.40;4.67;;;5.20;80.50;;;;;;4971877;28;20426;-70
2023/04/15 06:07:22;;;;;;;7.97;4.50;;;5.20;80.00;;;;;;4969610;28;20447;-72
2023/04/15 06:09:48;;;;;;;6.73;4.70;;;5.30;79.60;;;;;;4973535;28;20492;-74
2023/04/15 06:12:14;;;;;;;6.70;4.67;;;5.40;79.30;;;;;;4978512;28;20464;-74
2023/04/15 06:14:40;;;;;;;9.13;4.90;;;5.50;79.00;;;;;;4974323;28;20250;-74
2023/04/15 06:17:06;;;;;;;7.30;4.73;;;5.60;78.60;;;;;;4986658;28;20461;-74
2023/04/15 06:19:32;;;;;;;9.67;5.17;;;5.70;78.60;;;;;;4985367;28;20187;-75
2023/04/15 06:21:58;;;;;;;11.13;4.97;;;5.80;77.80;;;;;;4979102;28;20470;-74
2023/04/15 06:24:24;;;;;;;7.60;4.93;;;5.90;77.80;;;;;;4978769;28;20916;-73
2023/04/15 06:26:49;;;;;;;6.77;4.20;;;6.10;78.10;;;;;;4973243;28;20219;-74
2023/04/15 06:29:15;;;;;;;8.40;4.40;;;6.30;77.80;;;;;;4980604;28;20278;-74
2023/04/15 06:31:40;;;;;;;9.80;4.70;;;6.60;77.40;;;;;;4970236;28;20203;-74
2023/04/15 06:34:06;;;;;;;5.37;3.97;;;6.70;77.30;;;;;;4979022;28;20278;-74
2023/04/15 06:36:32;;;;;;;10.40;5.80;;;6.90;76.80;;;;;;4972562;28;20223;-73
2023/04/15 06:38:57;;;;;;;8.63;4.47;;;7.20;76.10;;;;;;4978720;28;20203;-73
2023/04/15 06:41:23;;;;;;;11.83;5.30;;;7.30;74.90;;;;;;4982209;28;20269;-75
2023/04/15 06:43:49;;;;;;;12.53;6.30;;;7.50;74.50;;;;;;4985563;28;20187;-74
2023/04/15 06:46:15;;;;;;;8.83;5.97;;;7.60;73.50;;;;;;4981148;28;20207;-74
2023/04/15 06:48:41;;;;;;;10.53;7.30;;;7.70;73.30;;;;;;4980896;28;20442;-74
2023/04/15 06:51:07;;;;;;;12.97;7.00;;;7.80;73.00;;;;;;4980148;28;20673;-75
2023/04/15 06:53:32;;;;;;;11.70;7.40;;;7.70;73.00;;;;;;4972820;28;20434;-75
2023/04/15 06:55:58;;;;;;;14.07;7.33;;;7.70;73.20;;;;;;4977819;28;20219;-74
2023/04/15 06:58:24;;;;;;;11.23;6.60;;;7.70;73.30;;;;;;4968918;28;20246;-72
2023/04/15 07:00:49;;;;;;;15.27;7.17;;;7.70;73.50;;;;;;4980456;28;20237;-72
2023/04/15 07:03:15;;;;;;;13.17;7.20;;;7.90;73.20;;;;;;4970448;28;20194;-72
2023/04/15 07:05:41;;;;;;;10.70;5.90;;;7.80;72.40;;;;;;4978001;28;20234;-72
2023/04/15 07:08:06;;;;;;;22.50;7.50;;;7.70;72.60;;;;;;4974362;28;20194;-72
2023/04/15 07:10:33;;;;;;;16.17;7.47;;;7.70;72.90;;;;;;4977547;28;20269;-72
2023/04/15 07:12:58;;;;;;;14.70;6.63;;;7.70;72.90;;;;;;4972043;28;20251;-72
2023/04/15 07:15:24;;;;;;;15.67;7.53;;;7.90;73.00;;;;;;4968784;28;20479;-72
2023/04/15 07:17:50;;;;;;;13.93;6.70;;;8.00;72.60;;;;;;4973009;28;20187;-71
2023/04/15 07:20:15;;;;;;;13.67;6.90;;;8.10;72.40;;;;;;4973068;28;20191;-72
2023/04/15 07:22:41;;;;;;;11.57;6.80;;;8.30;72.30;;;;;;4974602;28;20201;-72
2023/04/15 07:25:07;;;;;;;11.20;6.30;;;8.50;72.10;;;;;;4971189;28;20219;-72
2023/04/15 07:27:33;;;;;;;11.73;7.00;;;8.60;71.00;;;;;;4979828;28;20203;-71
2023/04/15 07:29:59;;;;;;;12.60;6.73;;;8.80;70.80;;;;;;4979750;28;20533;-71
2023/04/15 07:32:24;;;;;;;11.83;5.90;;;9.00;70.50;;;;;;4977487;28;20662;-72
2023/04/15 07:34:50;;;;;;;13.37;7.10;;;9.10;69.50;;;;;;4971020;28;20619;-71
2023/04/15 07:37:16;;;;;;;15.33;6.57;;;9.20;69.80;;;;;;4968848;28;21009;-72
2023/04/15 07:39:42;;;;;;;13.07;6.90;;;9.30;69.80;;;;;;4971430;28;20191;-73
2023/04/15 07:42:08;;;;;;;12.63;6.67;;;9.40;69.40;;;;;;4973614;28;20194;-71
2023/04/15 07:44:33;;;;;;;14.37;7.03;;;9.50;69.50;;;;;;4971820;28;20434;-74
2023/04/15 07:47:00;;;;;;;13.10;7.33;;;9.60;69.40;;;;;;4973287;28;20222;-72
2023/04/15 07:49:26;;;;;;;12.60;6.83;;;9.60;69.10;;;;;;4980300;28;20287;-72
2023/04/15 07:51:52;;;;;;;15.67;7.50;;;9.60;69.10;;;;;;4971803;28;20461;-70
2023/04/15 07:54:18;;;;;;;11.90;6.23;;;9.60;69.10;;;;;;4976130;28;20195;-71
2023/04/15 07:56:43;;;;;;;11.40;5.60;;;9.60;69.40;;;;;;4975841;28;20486;-71
2023/04/15 07:59:09;;;;;;;9.43;5.90;;;9.60;69.70;;;;;;4997673;28;20237;-72
2023/04/15 08:01:35;;;;;;;15.63;6.57;;;9.70;69.70;;;;;;4984780;28;20244;-72
2023/04/15 08:04:01;;;;;;;16.63;5.97;;;9.80;69.50;;;;;;4991963;28;20214;-71
2023/04/15 08:06:27;;;;;;;13.83;6.73;;;9.90;69.10;;;;;;4984944;28;20477;-71
2023/04/15 08:08:53;;;;;;;12.20;6.00;;;10.00;68.90;;;;;;4983752;28;20427;-73
2023/04/15 08:11:20;;;;;;;10.70;6.43;;;10.00;69.20;;;;;;4982895;28;20454;-70
2023/04/15 08:13:46;;;;;;;11.07;6.60;;;10.20;68.80;;;;;;4983529;28;20435;-73
2023/04/15 08:16:18;;;;;;;11.37;6.17;;;10.30;68.80;;;;;;4971548;28;20558;-72
2023/04/15 08:18:44;;;;;;;12.10;6.20;;;10.50;68.20;;;;;;4978720;28;20515;-71
2023/04/15 08:21:10;;;;;;;10.93;6.67;;;10.60;67.70;;;;;;4975839;28;20845;-72
2023/04/15 08:23:36;;;;;;;8.43;5.90;;;10.70;67.50;;;;;;4976156;28;20477;-72
2023/04/15 08:26:02;;;;;;;9.30;5.47;;;10.80;66.90;;;;;;4970147;28;20470;-71
2023/04/15 08:28:28;;;;;;;13.27;6.90;;;10.90;66.70;;;;;;4975063;28;20422;-72
2023/04/15 08:30:53;;;;;;;9.03;5.50;;;11.10;66.70;;;;;;4975152;28;20722;-72
2023/04/15 08:33:19;;;;;;;10.93;6.33;;;11.30;66.10;;;;;;4977799;28;20190;-71
2023/04/15 08:35:45;;;;;;;13.83;6.10;;;11.50;65.80;;;;;;4972542;28;20218;-71
2023/04/15 08:38:11;;;;;;;10.13;4.97;;;11.70;64.80;;;;;;4977718;28;20213;-72
2023/04/15 08:40:44;;;;;;;6.30;4.70;;;11.90;63.90;;;;;;4975782;28;20811;-71
2023/04/15 08:43:17;;;;;;;9.83;5.07;;;12.10;63.40;;;;;;4982436;28;20728;-72
2023/04/15 08:45:45;;;;;;;8.60;4.90;;;12.20;62.60;;;;;;4971671;28;20454;-71
2023/04/15 08:48:15;;;;;;;11.77;5.20;;;12.40;62.30;;;;;;4978711;28;20430;-71
2023/04/15 08:50:41;;;;;;;11.30;5.50;;;12.60;61.50;;;;;;4976267;28;20469;-72
2023/04/15 08:53:07;;;;;;;11.20;4.90;;;12.70;61.00;;;;;;4975971;28;20451;-73
2023/04/15 08:55:35;;;;;;;7.37;4.73;;;12.60;60.90;;;;;;4973814;28;20478;-73
2023/04/15 08:58:01;;;;;;;8.83;5.00;;;12.60;61.30;;;;;;4974313;28;20461;-73
2023/04/15 09:00:28;;;;;;;9.53;5.67;;;12.70;61.50;;;;;;4980700;28;20485;-73
2023/04/15 09:02:55;;;;;;;11.70;5.93;;;12.80;61.00;;;;;;4976717;28;20433;-73
2023/04/15 09:05:21;;;;;;;5.77;4.40;;;13.00;60.60;;;;;;4971703;28;20477;-73
2023/04/15 09:07:47;;;;;;;9.53;4.47;;;13.10;60.10;;;;;;4974330;28;20958;-73
2023/04/15 09:10:13;;;;;;;12.90;4.57;;;13.30;60.10;;;;;;4981478;28;20440;-73
2023/04/15 09:12:38;;;;;;;7.47;4.80;;;13.50;58.90;;;;;;4976669;28;20290;-73
2023/04/15 09:15:05;;;;;;;9.17;4.57;;;13.50;58.40;;;;;;4978332;28;20207;-73
2023/04/15 09:17:32;;;;;;;8.83;4.40;;;13.60;58.10;;;;;;4978151;28;20187;-73
2023/04/15 09:20:13;;;;;;;7.60;4.70;;;13.60;58.20;;;;;;4979945;28;20836;-75
2023/04/15 09:22:39;;;;;;;8.00;4.87;;;13.60;58.10;;;;;;4975594;28;20458;-72
2023/04/15 09:25:27;;;;;;;15.47;5.93;;;13.60;58.70;;;;;;4972321;28;20423;-74
2023/04/15 09:28:02;;;;;;;8.70;4.83;;;13.60;58.40;;;;;;4977173;28;20430;-73
2023/04/15 09:30:28;;;;;;;8.10;4.30;;;13.40;58.50;;;;;;4979968;28;20517;-72
2023/04/15 09:32:58;;;;;;;9.27;4.20;;;13.60;57.70;;;;;;4987381;28;20466;-72
2023/04/15 09:35:26;;;;;;;7.13;4.43;;;13.70;57.30;;;;;;4972266;28;20572;-73
2023/04/15 09:37:53;;;;;;;10.47;3.90;;;13.80;56.80;;;;;;4981225;28;20450;-72
2023/04/15 09:40:36;;;;;;;6.00;3.90;;;13.60;56.20;;;;;;4978103;28;20449;-71
2023/04/15 09:43:06;;;;;;;8.57;3.87;;;13.60;56.10;;;;;;4972428;28;20430;-73
2023/04/15 09:45:33;;;;;;;8.00;4.03;;;13.70;55.70;;;;;;4976145;28;20468;-72
2023/04/15 09:48:13;;;;;;;5.90;3.90;;;13.60;55.60;;;;;;4974153;28;20474;-73
2023/04/15 09:50:41;;;;;;;7.33;3.80;;;13.70;55.70;;;;;;4979002;28;20476;-72
2023/04/15 09:53:15;;;;;;;9.97;4.27;;;13.80;55.20;;;;;;4983471;28;20464;-72
2023/04/15 09:55:44;;;;;;;8.70;3.93;;;13.80;55.80;;;;;;4979231;28;20571;-72
2023/04/15 09:58:18;;;;;;;7.57;4.20;;;13.70;56.10;;;;;;4976857;28;20449;-69
2023/04/15 10:00:49;;;;;;;9.23;4.63;;;13.70;55.30;;;;;;4976716;28;20470;-72
2023/04/15 10:03:21;;;;;;;7.77;4.27;;;13.80;55.80;;;;;;4977534;28;20795;-72
2023/04/15 10:05:49;;;;;;;5.87;4.00;;;13.80;55.60;;;;;;4977232;28;20458;-73
2023/04/15 10:08:17;;;;;;;8.40;3.87;;;13.90;55.40;;;;;;4978553;28;20423;-71
2023/04/15 10:10:45;;;;;;;5.00;3.27;;;14.00;54.20;;;;;;4992492;28;20422;-74
2023/04/15 10:13:16;;;;;;;5.40;3.20;;;13.70;54.20;;;;;;4978818;28;20499;-73
2023/04/15 10:15:45;;;;;;;8.40;3.47;;;13.70;53.20;;;;;;4978714;28;20485;-74
2023/04/15 10:18:14;;;;;;;4.93;3.83;;;13.80;53.80;;;;;;4980417;28;20425;-73
2023/04/15 10:20:41;;;;;;;6.30;4.13;;;13.70;54.20;;;;;;4978118;28;20515;-72
2023/04/15 10:23:08;;;;;;;9.27;4.30;;;13.50;54.20;;;;;;4975644;28;20423;-73
2023/04/15 10:25:35;;;;;;;8.20;3.57;;;13.60;54.40;;;;;;4972312;28;20463;-74
2023/04/15 10:28:02;;;;;;;6.83;3.43;;;13.50;53.40;;;;;;4973464;28;20527;-72
2023/04/15 10:30:28;;;;;;;8.83;4.20;;;13.70;54.20;;;;;;4980514;28;20438;-76
2023/04/15 10:32:55;;;;;;;9.43;3.90;;;13.70;55.00;;;;;;4973462;28;20922;-73
2023/04/15 10:35:21;;;;;;;5.80;4.00;;;13.80;53.40;;;;;;4972261;28;20224;-72
2023/04/15 10:37:47;;;;;;;8.17;4.13;;;13.80;53.30;;;;;;4972256;28;20446;-73
2023/04/15 10:40:30;;;;;;;6.30;3.60;;;13.80;54.00;;;;;;4977099;28;20469;-73
2023/04/15 10:43:01;;;;;;;7.37;4.67;;;13.90;54.20;;;;;;4973058;28;20172;-73
2023/04/15 10:45:30;;;;;;;12.60;5.00;;;14.10;54.10;;;;;;4972171;28;20537;-72
2023/04/15 10:48:00;;;;;;;6.07;4.53;;;14.10;53.60;;;;;;4979391;28;20435;-73
2023/04/15 10:50:28;;;;;;;8.00;3.97;;;14.00;54.50;;;;;;4979457;28;20426;-74
2023/04/15 10:52:55;;;;;;;9.00;4.10;;;13.90;53.30;;;;;;4968369;28;20422;-75
2023/04/15 10:55:23;;;;;;;5.27;3.80;;;13.90;54.90;;;;;;4976746;28;20482;-73
2023/04/15 10:57:59;;;;;;;5.57;3.73;;;13.90;54.50;;;;;;4972506;28;21133;-73
2023/04/15 11:00:28;;;;;;;5.20;3.30;;;14.00;53.20;;;;;;4973313;28;20944;-72
2023/04/15 11:03:07;;;;;;;6.20;3.80;;;13.90;52.60;;;;;;4978697;28;20420;-73
2023/04/15 11:05:42;;;;;;;12.00;4.60;;;13.90;52.90;;;;;;4972842;28;20530;-72
2023/04/15 11:08:09;;;;;;;5.93;3.63;;;13.80;53.60;;;;;;4971409;28;20439;-71
2023/04/15 11:10:34;;;;;;;6.93;3.93;;;13.80;54.00;;;;;;4972762;28;20480;-73
2023/04/15 11:13:13;;;;;;;6.20;4.20;;;13.80;53.70;;;;;;4971631;28;20431;-73
2023/04/15 11:15:40;;;;;;;7.20;4.30;;;13.80;54.20;;;;;;4970582;28;20216;-73
2023/04/15 11:18:20;;;;;;;9.60;4.83;;;13.60;55.70;;;;;;4974869;28;20860;-73
2023/04/15 11:20:47;;;;;;;10.23;4.40;;;13.60;56.00;;;;;;4969835;28;20457;-73
2023/04/15 11:23:34;;;;;;;10.60;5.27;;;13.70;55.80;;;;;;4973870;28;20501;-72
2023/04/15 11:26:04;;;;;;;8.07;4.80;;;14.20;54.90;;;;;;4969513;28;21279;-73
2023/04/15 11:28:31;;;;;;;8.97;4.90;;;14.40;54.80;;;;;;4971023;28;20490;-74
2023/04/15 11:30:57;;;;;;;7.07;4.07;;;14.40;54.20;;;;;;4968465;28;20744;-72
2023/04/15 11:33:23;;;;;;;6.20;4.13;;;14.20;52.00;;;;;;4980018;28;20424;-72
2023/04/15 11:35:51;;;;;;;6.20;3.87;;;14.60;51.70;;;;;;4966477;28;20499;-71
2023/04/15 11:38:17;;;;;;;8.13;3.63;;;14.70;49.70;;;;;;4977491;28;21040;-72
2023/04/15 11:40:43;;;;;;;10.77;4.33;;;14.60;50.20;;;;;;4984047;28;20466;-72
2023/04/15 11:43:10;;;;;;;9.50;3.70;;;14.70;50.10;;;;;;4983017;28;20908;-71
2023/04/15 11:45:46;;;;;;;12.30;5.10;;;14.90;51.00;;;;;;4977232;28;20471;-73
2023/04/15 11:48:12;;;;;;;8.77;5.53;;;14.90;51.60;;;;;;4978697;28;20439;-71
2023/04/15 11:50:42;;;;;;;9.30;4.43;;;14.40;53.40;;;;;;4982018;28;20489;-72
2023/04/15 11:53:12;;;;;;;5.67;4.00;;;13.90;54.80;;;;;;4984987;28;20434;-74
2023/04/15 11:55:55;;;;;;;9.80;4.60;;;13.70;54.80;;;;;;4989568;28;20983;-72
2023/04/15 11:58:23;;;;;;;8.07;4.37;;;13.70;55.70;;;;;;4991744;28;20423;-71
2023/04/15 12:00:55;;;;;;;7.63;4.40;;;13.80;56.10;;;;;;4993897;28;21265;-71
2023/04/15 12:03:28;;;;;;;10.00;4.87;;;14.00;55.40;;;;;;4996481;28;20445;-73
2023/04/15 12:06:07;;;;;;;9.20;4.93;;;14.10;54.60;;;;;;4978945;28;20472;-73
2023/04/15 12:09:14;;;;;;;8.07;4.90;;;14.00;54.50;;;;;;4993930;28;20463;-73
2023/04/15 12:11:51;;;;;;;6.07;4.70;;;14.20;54.50;;;;;;4981949;28;20431;-71
2023/04/15 12:14:28;;;;;;;6.63;4.30;;;14.00;55.30;;;;;;4976721;28;20441;-72
2023/04/15 12:17:01;;;;;;;9.60;4.90;;;14.20;55.20;;;;;;4977711;28;20564;-72
2023/04/15 12:19:36;;;;;;;8.63;4.30;;;14.20;55.30;;;;;;4979764;28;20435;-71
2023/04/15 12:22:10;;;;;;;8.77;4.50;;;14.10;55.60;;;;;;4986455;28;20782;-71
2023/04/15 12:24:37;;;;;;;7.80;4.97;;;14.10;54.20;;;;;;4975976;28;21084;-74
2023/04/15 12:27:05;;;;;;;7.90;5.30;;;14.10;52.90;;;;;;4974575;28;20552;-71
2023/04/15 12:29:33;;;;;;;8.57;4.33;;;14.10;53.00;;;;;;4986109;28;20433;-72
2023/04/15 12:32:07;;;;;;;12.43;4.90;;;14.00;53.40;;;;;;4979322;28;20438;-72
2023/04/15 12:34:36;;;;;;;10.13;4.30;;;13.40;58.40;;;;;;4975549;28;20944;-71
2023/04/15 12:37:04;;;;;;;7.77;4.33;;;12.50;63.80;;;;;;4970019;28;20477;-72
2023/04/15 12:39:33;;;;;;;9.80;4.90;;;12.20;66.90;;;;;;4979984;28;20925;-72
2023/04/15 12:41:59;;;;;;;11.10;5.53;;;11.70;69.70;;;;;;4980752;28;20429;-71
2023/04/15 12:44:26;;;;;;;12.30;5.43;;;11.20;71.40;;;;;;4979169;28;20427;-73
2023/04/15 12:46:52;;;;;;;15.23;5.67;;;11.10;72.40;;;;;;4971022;28;20764;-71
2023/04/15 12:49:21;;;;;;;9.57;5.73;;;11.00;72.90;;;;;;4974670;28;20433;-72
2023/04/15 12:51:49;;;;;;;7.93;5.07;;;10.70;73.70;;;;;;4984223;28;20987;-72